Nearby METAR Reports

 

PAEN - Kenai, Alaska, USA
Distance from station: ESE 2mi, 4km
Updated: Sun, 09-May-2021 5:53am AKDT
Overcast
Overcast
 Wind from calm
Wind: Calm
Temperature: 41°F , 5°C
Dew Point: 37°F , 3°C
Humidity: 87%
Barometer: 30.08 inHg , 1018.6 hPa
Clouds: Overcast
Visibility: 10 miles , 16 km
Cloud details: Overcast 6500 ft
2021/05/09 13:53 PAEN 091353Z 00000KT 10SM OVC065 05/03 A3008 RMK AO2 SLP187 T00500033
PASX - Soldotna, Alaska, USA
Distance from station: SE 12mi, 19km
Updated: Sun, 09-May-2021 5:56am AKDT
Overcast
Overcast
 Wind from calm
Wind: Calm
Temperature: 39°F , 4°C
Dew Point: 37°F , 3°C
Humidity: 93%
Barometer: 30.10 inHg , 1019.3 hPa
Clouds: Overcast
Visibility: 10 miles , 16 km
Cloud details: Overcast 7000 ft
2021/05/09 13:56 PASX 091356Z AUTO 00000KT 10SM OVC070 04/03 A3010 RMK AO2 SLP202 T00440033
 
PANC - Anchorage Intl, Alaska, USA
Distance from station: NE 59mi, 96km
Updated: Sun, 09-May-2021 5:53am AKDT
Overcast
Overcast
 Wind from varies
Wind: varies 7 mph , 11 km/h
Temperature: 45°F , 7°C
Wind Chill: 41°F , 5°C
Dew Point: 37°F , 3°C
Humidity: 76%
Barometer: 30.08 inHg , 1018.6 hPa
Clouds: Overcast
Visibility: 10 miles , 16 km
Cloud details: Mostly cloudy 7000 ft
Overcast 8500 ft
2021/05/09 13:53 PANC 091353Z VRB06KT 10SM BKN070 OVC085 07/03 A3008 RMK AO2 SLP188 T00720028
PALH - Anchorage/Lake H, Alaska, USA
Distance from station: NE 61mi, 99km
Updated: Sun, 09-May-2021 5:53am AKDT
Overcast
Overcast
 Wind from SW
Wind: SW 5 mph , 7 km/h
Temperature: 45°F , 7°C
Wind Chill: 42°F , 6°C
Dew Point: 37°F , 3°C
Humidity: 76%
Barometer: 30.09 inHg , 1019 hPa
Clouds: Overcast
Visibility: 10 miles , 16 km
Cloud details: Overcast 8000 ft
2021/05/09 13:53 PALH 091353Z 23004KT 10SM OVC080 07/03 A3009 RMK AO2 RAB1254E16 SLP190 P0000 T00720033
 
PAHO - Homer, Alaska, USA
Distance from station: S 66mi, 106km
Updated: Sun, 09-May-2021 5:53am AKDT
Overcast
Overcast
 Wind from calm
Wind: Calm
Temperature: 43°F , 6°C
Dew Point: 37°F , 3°C
Humidity: 81%
Barometer: 30.09 inHg , 1019 hPa
Clouds: Overcast
Visibility: 10 miles , 16 km
Cloud details: Overcast 4500 ft
2021/05/09 13:53 PAHO 091353Z AUTO 00000KT 10SM OVC045 06/03 A3009 RMK AO2 SLP189 T00610028 TSNO
PAMR - Anchorage/Merril, Alaska, USA
Distance from station: NE 66mi, 106km
Updated: Sun, 09-May-2021 5:53am AKDT
Overcast
Overcast
 Wind from calm
Wind: Calm
Temperature: 46°F , 8°C
Dew Point: 34°F , 1°C
Humidity: 62%
Barometer: 30.08 inHg , 1018.6 hPa
Clouds: Overcast
Visibility: 10 miles , 16 km
Cloud details: Overcast 8000 ft
2021/05/09 13:53 PAMR 091353Z 00000KT 10SM OVC080 08/01 A3008 RMK AO2 SLP187 T00780011 $
 
PAED - Elmendorf Afb, Alaska, USA
Distance from station: NE 69mi, 110km
Updated: Sun, 09-May-2021 6:30am AKDT
Overcast
Overcast
 Wind from calm
Wind: Calm
Temperature: 46°F , 8°C
Dew Point: 37°F , 3°C
Humidity: 71%
Barometer: 30.09 inHg , 1019 hPa
Clouds: Overcast
Visibility: 10 miles , 16 km
Cloud details: Overcast 7000 ft
2021/05/09 14:30 PAED 091430Z 00000KT 10SM OVC070 08/03 A3009 RMK AO2A DZB20E30DZB30 SLP186 $
PAWD - Seward, Alaska, USA
Distance from station: ESE 71mi, 115km
Updated: Sun, 09-May-2021 5:53am AKDT
Overcast
Overcast
 Wind from calm
Wind: Calm
Temperature: 37°F , 3°C
Dew Point: 37°F , 3°C
Humidity: 100%
Barometer: 30.11 inHg , 1019.6 hPa
Clouds: Overcast
Visibility: 10 miles , 16 km
Cloud details: Few Clouds 5500 ft
Overcast 8000 ft
2021/05/09 13:53 PAWD 091353Z AUTO 00000KT 10SM FEW055 OVC080 03/03 A3011 RMK AO2 SLP194 T00330028 TSNO $
 
PASC - Deadhorse, Alaska, USA
Distance from station: ENE 670mi, 1078km
Updated: Sun, 09-May-2021 5:53am AKDT
Overcast
Overcast
 Wind from ENE
Wind: ENE 15 mph , 24 km/h
Temperature: 19°F , -7°C
Wind Chill: 5°F , -15°C
Dew Point: 18°F , -8°C
Humidity: 93%
Barometer: 30.26 inHg , 1024.7 hPa
Clouds: Overcast
Visibility: 8 miles , 13 km
Cloud details: Overcast 1000 ft
2021/05/09 13:53 PASC 091353Z 06013KT 8SM OVC010 M07/M08 A3026 RMK AO2 SLP250 T10671083 $
PAAD - Point Thomson, Alaska, USA
Distance from station: ENE 680mi, 1094km
Updated: Sun, 09-May-2021 6:15am AKDT
Overcast
Overcast
 Wind from ENE
Wind: ENE 13 mph , 20 km/h
Temperature: 19°F , -7°C
Wind Chill: 6°F , -14°C
Dew Point: 18°F , -8°C
Humidity: 93%
Barometer: 30.26 inHg , 1024.7 hPa
Clouds: Overcast
Visibility: 7 miles , 11 km
Cloud details: Overcast 500 ft
2021/05/09 14:15 PAAD 091415Z AUTO 07011KT 7SM OVC005 M07/M08 A3026 RMK AO2 T10711081


kenaipeople.com website

Dans Automotive

Lower Peninsula Power Sports

Freddies RoadHouse

Alaska Weather Net